^^
Station Historical Data
Daily Summary for October 31, 2017 Units:  English    Metric   Both
« Previous Day
Next Day »
Daily Weekly Monthly Yearly Custom
  High: Low: Average:
Temperature: 55.9 °F 42.4 °F 48.8 °F
Dew Point: 38.6 °F 30.7 °F 35.2 °F
Humidity: 83% 41% 61%
Wind Speed: 9.0mph 0.0mph 2.7mph
Wind Gust: 20.0mph - -
Wind- - SW
Pressure: 30.25 in 29.87 in -
Precipitation: 0.00 in    
Historical Graphs
 
 
Tabular Data for October 31, 2017
Time Temperature Dew Point Pressure Wind Wind Speed Wind Gust Humidity Rainfall Rate (Hourly) Conditions
00:00 49.4 °F 36.5 °F 29.87 in SSW 8.0 mph 20.0 mph 61% 0.00 in RA
00:10 49.3 °F 36.4 °F 29.87 in SSW 6.0 mph 14.0 mph 61% 0.00 in CLR
00:20 49.1 °F 36.6 °F 29.87 in SSW 5.0 mph 14.0 mph 62% 0.00 in CLR
00:30 49.0 °F 36.9 °F 29.88 in SSW 3.0 mph 12.0 mph 63% 0.00 in CLR
00:50 48.9 °F 37.6 °F 29.87 in SSW 3.0 mph 12.0 mph 65% 0.00 in CLR
01:00 48.7 °F 37.5 °F 29.88 in SSW 5.0 mph 15.0 mph 65% 0.00 in CLR
01:10 48.6 °F 37.4 °F 29.88 in SSW 7.0 mph 16.0 mph 65% 0.00 in CLR
01:20 48.5 °F 37.7 °F 29.88 in SW 6.0 mph 17.0 mph 66% 0.00 in CLR
01:30 48.4 °F 37.6 °F 29.88 in SSW 5.0 mph 16.0 mph 66% 0.00 in CLR
01:40 48.3 °F 37.5 °F 29.89 in SSW 6.0 mph 14.0 mph 66% 0.00 in CLR
01:50 48.1 °F 37.7 °F 29.89 in SW 3.0 mph 17.0 mph 67% 0.00 in CLR
01:59 48.0 °F 37.6 °F 29.90 in SSW 7.0 mph 12.0 mph 67% 0.00 in CLR
02:09 47.9 °F 37.8 °F 29.90 in SW 6.0 mph 18.0 mph 68% 0.00 in CLR
02:20 47.9 °F 37.8 °F 29.91 in SW 5.0 mph 12.0 mph 68% 0.00 in CLR
02:30 47.7 °F 38.0 °F 29.91 in SSW 3.0 mph 12.0 mph 69% 0.00 in CLR
02:39 47.7 °F 38.0 °F 29.92 in SW 2.0 mph 8.0 mph 69% 0.00 in CLR
02:50 47.6 °F 37.6 °F 29.92 in SSW 3.0 mph 12.0 mph 68% 0.00 in CLR
03:00 47.6 °F 37.6 °F 29.92 in SW 3.0 mph 12.0 mph 68% 0.00 in CLR
03:10 47.5 °F 37.8 °F 29.92 in SW 5.0 mph 10.0 mph 69% 0.00 in CLR
03:20 47.4 °F 37.8 °F 29.92 in SW 2.0 mph 10.0 mph 69% 0.00 in CLR
03:30 47.3 °F 38.0 °F 29.93 in SW 3.0 mph 10.0 mph 70% 0.00 in CLR
03:40 47.0 °F 38.1 °F 29.93 in SW 2.0 mph 10.0 mph 71% 0.00 in CLR
03:50 46.7 °F 38.5 °F 29.93 in SSW 2.0 mph 7.0 mph 73% 0.00 in CLR
04:00 46.5 °F 38.3 °F 29.94 in SSW 2.0 mph 6.0 mph 73% 0.00 in CLR
04:10 46.4 °F 38.2 °F 29.94 in SW 1.0 mph 8.0 mph 73% 0.00 in CLR
04:20 46.5 °F 38.3 °F 29.94 in SW 2.0 mph 12.0 mph 73% 0.00 in CLR
04:29 46.4 °F 38.2 °F 29.94 in SSW 3.0 mph 9.0 mph 73% 0.00 in CLR
04:40 46.2 °F 38.4 °F 29.95 in SSW 2.0 mph 7.0 mph 74% 0.00 in CLR
04:49 46.0 °F 38.2 °F 29.95 in SSW 2.0 mph 9.0 mph 74% 0.00 in CLR
05:00 46.0 °F 38.2 °F 29.95 in SW 5.0 mph 12.0 mph 74% 0.00 in CLR
05:10 45.7 °F 38.2 °F 29.95 in SSW 1.0 mph 8.0 mph 75% 0.00 in CLR
05:20 45.6 °F 38.5 °F 29.95 in SW 2.0 mph 8.0 mph 76% 0.00 in CLR
05:29 45.4 °F 38.3 °F 29.96 in SW 1.0 mph 6.0 mph 76% 0.00 in CLR
05:39 45.2 °F 38.4 °F 29.96 in SSW 1.0 mph 6.0 mph 77% 0.00 in CLR
05:50 44.9 °F 38.1 °F 29.97 in SW 3.0 mph 6.0 mph 77% 0.00 in CLR
05:59 44.8 °F 38.4 °F 29.97 in SW 1.0 mph 6.0 mph 78% 0.00 in CLR
06:10 44.6 °F 38.5 °F 29.97 in Calm   8.0 mph 79% 0.00 in CLR
06:20 44.2 °F 38.4 °F 29.97 in SW 2.0 mph 6.0 mph 80% 0.00 in CLR
06:30 43.7 °F 38.6 °F 29.97 in SSW 1.0 mph 4.0 mph 82% 0.00 in CLR
06:40 43.4 °F 38.2 °F 29.98 in Calm   5.0 mph 82% 0.00 in CLR
06:50 43.2 °F 38.1 °F 29.98 in SW 1.0 mph 4.0 mph 82% 0.00 in CLR
07:00 43.3 °F 37.9 °F 29.99 in SW 1.0 mph 8.0 mph 81% 0.00 in CLR
07:10 43.2 °F 37.8 °F 29.99 in SW 1.0 mph 6.0 mph 81% 0.00 in CLR
07:20 43.1 °F 38.0 °F 30.00 in Calm   3.0 mph 82% 0.00 in CLR
07:29 42.7 °F 37.6 °F 30.00 in SSW 1.0 mph 5.0 mph 82% 0.00 in CLR
07:40 42.6 °F 37.5 °F 30.00 in Calm   4.0 mph 82% 0.00 in CLR
07:50 42.4 °F 37.6 °F 30.00 in Calm   2.0 mph 83% 0.00 in CLR
08:00 42.6 °F 37.5 °F 30.01 in Calm   3.0 mph 82% 0.00 in CLR
08:10 43.0 °F 37.6 °F 30.01 in SSW 1.0 mph 4.0 mph 81% 0.00 in CLR
08:20 43.2 °F 37.4 °F 30.02 in Calm   4.0 mph 80% 0.00 in CLR
08:30 43.7 °F 37.6 °F 30.02 in SSW 1.0 mph 5.0 mph 79% 0.00 in CLR
08:40 44.1 °F 37.7 °F 30.02 in SSW 1.0 mph 6.0 mph 78% 0.00 in CLR
08:50 44.4 °F 37.6 °F 30.02 in Calm   4.0 mph 77% 0.00 in CLR
08:59 44.8 °F 37.7 °F 30.03 in WSW 3.0 mph 6.0 mph 76% 0.00 in CLR
09:10 45.1 °F 38.0 °F 30.03 in Calm   6.0 mph 76% 0.00 in CLR
09:20 45.0 °F 37.9 °F 30.04 in SW 1.0 mph 8.0 mph 76% 0.00 in CLR
09:29 45.1 °F 38.0 °F 30.04 in SSW 3.0 mph 8.0 mph 76% 0.00 in CLR
09:40 45.5 °F 38.0 °F 30.04 in SSW 3.0 mph 8.0 mph 75% 0.00 in CLR
09:50 46.4 °F 37.8 °F 30.05 in SSW 5.0 mph 8.0 mph 72% 0.00 in CLR
10:00 47.1 °F 37.0 °F 30.04 in South 3.0 mph 7.0 mph 68% 0.00 in CLR
11:00 49.5 °F 35.8 °F 30.05 in SW 5.0 mph 16.0 mph 59% 0.00 in CLR
11:10 49.2 °F 36.3 °F 30.05 in SW 6.0 mph 13.0 mph 61% 0.00 in SCT
11:20 49.3 °F 36.0 °F 30.05 in SSW 5.0 mph 12.0 mph 60% 0.00 in SCT
11:30 50.7 °F 36.4 °F 30.05 in SW 7.0 mph 16.0 mph 58% 0.00 in SCT
11:40 50.9 °F 35.7 °F 30.05 in SW 6.0 mph 16.0 mph 56% 0.00 in SCT
11:50 51.6 °F 35.5 °F 30.05 in SW 5.0 mph 15.0 mph 54% 0.00 in SCT
12:00 52.2 °F 34.1 °F 30.05 in SW 8.0 mph 14.0 mph 50% 0.00 in SCT
12:10 52.0 °F 33.4 °F 30.05 in SW 6.0 mph 17.0 mph 49% 0.00 in FEW
12:20 52.6 °F 34.0 °F 30.05 in SW 9.0 mph 20.0 mph 49% 0.00 in FEW
12:30 52.2 °F 34.6 °F 30.05 in WSW 7.0 mph 18.0 mph 51% 0.00 in FEW
12:40 52.6 °F 35.0 °F 30.05 in WSW 1.0 mph 15.0 mph 51% 0.00 in FEW
12:50 53.4 °F 35.7 °F 30.04 in SW 5.0 mph 10.0 mph 51% 0.00 in FEW
13:00 53.3 °F 35.6 °F 30.04 in WSW 5.0 mph 14.0 mph 51% 0.00 in FEW
13:10 53.9 °F 35.6 °F 30.04 in SW 5.0 mph 16.0 mph 50% 0.00 in FEW
13:20 53.9 °F 34.1 °F 30.04 in SW 7.0 mph 16.0 mph 47% 0.00 in FEW
13:30 54.2 °F 34.9 °F 30.04 in SW 2.0 mph 15.0 mph 48% 0.00 in FEW
13:40 54.4 °F 35.1 °F 30.05 in SW 5.0 mph 14.0 mph 48% 0.00 in FEW
13:50 54.6 °F 35.8 °F 30.05 in SW 2.0 mph 14.0 mph 49% 0.00 in FEW
14:00 55.2 °F 34.2 °F 30.05 in SW 7.0 mph 12.0 mph 45% 0.00 in FEW
14:10 55.0 °F 32.9 °F 30.04 in SW 6.0 mph 13.0 mph 43% 0.00 in FEW
14:20 54.7 °F 33.2 °F 30.05 in WSW 7.0 mph 13.0 mph 44% 0.00 in FEW
14:30 54.9 °F 33.4 °F 30.05 in WSW 5.0 mph 14.0 mph 44% 0.00 in FEW
14:40 55.1 °F 33.6 °F 30.05 in SW 6.0 mph 13.0 mph 44% 0.00 in FEW
14:50 55.3 °F 33.7 °F 30.05 in WSW 3.0 mph 16.0 mph 44% 0.00 in FEW
15:00 55.9 °F 34.3 °F 30.05 in SW 5.0 mph 10.0 mph 44% 0.00 in FEW
15:10 55.2 °F 32.5 °F 30.06 in SW 2.0 mph 14.0 mph 42% 0.00 in FEW
15:20 55.5 °F 33.3 °F 30.06 in SW 3.0 mph 12.0 mph 43% 0.00 in FEW
15:30 55.7 °F 32.9 °F 30.06 in WSW 5.0 mph 13.0 mph 42% 0.00 in FEW
15:40 55.2 °F 31.9 °F 30.06 in SW 6.0 mph 15.0 mph 41% 0.00 in FEW
15:50 55.4 °F 32.1 °F 30.07 in SSW 6.0 mph 14.0 mph 41% 0.00 in FEW
16:00 55.4 °F 32.7 °F 30.07 in SW 3.0 mph 12.0 mph 42% 0.00 in FEW
16:10 55.5 °F 32.2 °F 30.07 in WSW 5.0 mph 17.0 mph 41% 0.00 in FEW
16:20 55.4 °F 32.1 °F 30.07 in SW 2.0 mph 16.0 mph 41% 0.00 in FEW
16:30 55.1 °F 31.8 °F 30.07 in SW 5.0 mph 15.0 mph 41% 0.00 in FEW
16:40 55.0 °F 31.7 °F 30.08 in SW 3.0 mph 14.0 mph 41% 0.00 in FEW
16:50 55.0 °F 32.3 °F 30.08 in SW 2.0 mph 16.0 mph 42% 0.00 in FEW
17:00 54.9 °F 32.2 °F 30.08 in SSW 2.0 mph 12.0 mph 42% 0.00 in FEW
17:10 54.7 °F 32.0 °F 30.09 in SW 3.0 mph 10.0 mph 42% 0.00 in FEW
17:20 54.3 °F 31.7 °F 30.09 in SSW 2.0 mph 12.0 mph 42% 0.00 in FEW
17:30 54.1 °F 32.1 °F 30.10 in SSW 1.0 mph 7.0 mph 43% 0.00 in FEW
17:40 53.3 °F 30.7 °F 30.11 in South 2.0 mph 12.0 mph 42% 0.00 in FEW
17:50 52.6 °F 31.3 °F 30.11 in SW 3.0 mph 7.0 mph 44% 0.00 in FEW
18:00 52.3 °F 31.0 °F 30.12 in SSW 1.0 mph 8.0 mph 44% 0.00 in FEW
18:10 52.0 °F 31.8 °F 30.12 in SE 1.0 mph 7.0 mph 46% 0.00 in FEW
18:20 51.4 °F 31.8 °F 30.13 in South 2.0 mph 4.0 mph 47% 0.00 in FEW
18:30 51.3 °F 31.2 °F 30.13 in SSW 2.0 mph 9.0 mph 46% 0.00 in FEW
18:40 51.2 °F 31.1 °F 30.14 in SW 1.0 mph 9.0 mph 46% 0.00 in FEW
18:50 51.0 °F 31.0 °F 30.14 in SW 2.0 mph 9.0 mph 46% 0.00 in FEW
19:00 50.8 °F 31.3 °F 30.15 in South 1.0 mph 8.0 mph 47% 0.00 in FEW
19:10 50.4 °F 31.5 °F 30.15 in Calm   4.0 mph 48% 0.00 in CLR
19:20 50.2 °F 31.8 °F 30.15 in SSW 1.0 mph 8.0 mph 49% 0.00 in CLR
19:30 50.1 °F 31.7 °F 30.15 in SSW 1.0 mph 6.0 mph 49% 0.00 in CLR
19:40 50.1 °F 32.2 °F 30.16 in SSE 1.0 mph 5.0 mph 50% 0.00 in CLR
19:50 49.9 °F 32.0 °F 30.16 in SSW 1.0 mph 5.0 mph 50% 0.00 in CLR
20:00 49.6 °F 32.2 °F 30.17 in Calm   4.0 mph 51% 0.00 in CLR
20:10 49.5 °F 32.1 °F 30.17 in SSW 1.0 mph 7.0 mph 51% 0.00 in CLR
20:20 49.0 °F 33.0 °F 30.17 in SW 1.0 mph 4.0 mph 54% 0.00 in CLR
20:30 48.3 °F 33.3 °F 30.18 in South 1.0 mph 6.0 mph 56% 0.00 in CLR
20:40 47.4 °F 33.4 °F 30.19 in Calm   3.0 mph 58% 0.00 in CLR
20:50 46.9 °F 33.3 °F 30.19 in SSW 1.0 mph 5.0 mph 59% 0.00 in CLR
21:00 46.9 °F 33.7 °F 30.20 in Calm   4.0 mph 60% 0.00 in CLR
21:10 46.2 °F 33.5 °F 30.20 in Calm   2.0 mph 61% 0.00 in CLR
21:20 45.8 °F 33.5 °F 30.21 in Calm   2.0 mph 62% 0.00 in CLR
21:30 45.3 °F 33.0 °F 30.21 in Calm   3.0 mph 62% 0.00 in CLR
21:40 45.3 °F 33.0 °F 30.22 in South 1.0 mph 4.0 mph 62% 0.00 in CLR
21:50 45.2 °F 33.3 °F 30.23 in Calm   3.0 mph 63% 0.00 in CLR
22:00 44.8 °F 33.0 °F 30.23 in Calm   3.0 mph 63% 0.00 in CLR
22:10 44.6 °F 33.2 °F 30.23 in Calm   4.0 mph 64% 0.00 in CLR
22:20 44.6 °F 32.7 °F 30.24 in Calm   4.0 mph 63% 0.00 in CLR
22:30 44.3 °F 32.5 °F 30.24 in Calm   3.0 mph 63% 0.00 in CLR
22:40 43.8 °F 32.7 °F 30.24 in Calm   2.0 mph 65% 0.00 in CLR
22:50 43.9 °F 32.5 °F 30.25 in Calm   5.0 mph 64% 0.00 in CLR
23:00 43.4 °F 32.4 °F 30.25 in Calm   1.0 mph 65% 0.00 in CLR
23:10 43.1 °F 32.1 °F 30.25 in Calm   1.0 mph 65% 0.00 in CLR
23:50 43.7 °F 31.6 °F 30.25 in Calm   4.0 mph 62% 0.00 in CLR
TarryTown NY Weather
Compliments of Weather Underground - 1.75 mb